76CO weather

Hoy Airstrip
Bennett, Colorado, United States

Public forecast

Using degrees Fahrenheit for public forecast. Weather courtesy of forecast.io.

Closest aviation weather report (METAR) to Hoy Airstrip

Closest report is Colorado Air and Space Port, 6.2 nm (11.4 km) WSW. Retrieved UTC (0 seconds ago):

Closest aviation forecast (TAF) to Hoy Airstrip

Closest forecast is Denver International Airport, 11.7 nm (21.6 km) W. Retrieved 2019/10/19 06:39 UTC (2 hours ago):

TAF KDEN 190536Z 1906/2012 25007KT P6SM SKC FM190800 22008KT P6SM SKC FM191800 17007KT P6SM FEW110 SCT200 FM192300 13009KT P6SM FEW100 SCT200 FM200300 20011KT P6SM FEW120 BKN200